createdAt,value
2018-12-04T00:00:05.776Z,97879.38
2018-12-04T00:02:33.827Z,97879.19
2018-12-04T00:05:01.916Z,97889.28
2018-12-04T00:07:29.983Z,97888.27
2018-12-04T00:09:58.158Z,97899.07
2018-12-04T00:12:26.228Z,97897.31
2018-12-04T00:14:54.271Z,97896.64
2018-12-04T00:17:22.383Z,97902.00
2018-12-04T00:19:50.436Z,97907.97
2018-12-04T00:22:18.527Z,97909.91
2018-12-04T00:24:46.684Z,97909.28
2018-12-04T00:27:14.751Z,97908.30
2018-12-04T00:29:42.814Z,97908.41
2018-12-04T00:32:10.911Z,97896.55
2018-12-04T00:34:38.983Z,97905.03
2018-12-04T00:37:07.135Z,97904.70
2018-12-04T00:39:35.824Z,97910.69
2018-12-04T00:42:03.980Z,97899.66
2018-12-04T00:44:32.052Z,97914.13
2018-12-04T00:47:00.140Z,97916.73
2018-12-04T00:49:28.211Z,97913.97
2018-12-04T00:51:56.284Z,97920.32
2018-12-04T00:54:24.367Z,97922.88
2018-12-04T00:56:52.435Z,97929.72
2018-12-04T00:59:20.474Z,97940.80
2018-12-04T01:01:48.587Z,97943.69
2018-12-04T01:04:16.651Z,97944.18
2018-12-04T01:06:45.215Z,97954.20
2018-12-04T01:09:13.303Z,97960.66
2018-12-04T01:11:41.359Z,97959.98
2018-12-04T01:14:09.430Z,97960.38
2018-12-04T01:16:37.515Z,97973.37
2018-12-04T01:19:05.780Z,97978.11
2018-12-04T01:21:33.967Z,97980.86
2018-12-04T01:24:02.094Z,97994.41
2018-12-04T01:26:30.219Z,97992.59
2018-12-04T01:28:58.357Z,97996.73
2018-12-04T01:31:26.439Z,98004.78
2018-12-04T01:33:54.511Z,97998.00
2018-12-04T01:36:22.579Z,98002.74
2018-12-04T01:38:51.027Z,98000.33
2018-12-04T01:41:19.153Z,98002.72
2018-12-04T01:43:47.204Z,98011.08
2018-12-04T01:46:15.399Z,98017.69
2018-12-04T01:48:43.577Z,98010.69
2018-12-04T01:51:11.639Z,98019.86
2018-12-04T01:53:39.735Z,98019.41
2018-12-04T01:56:07.891Z,98028.05
2018-12-04T01:58:35.951Z,98029.84
2018-12-04T02:01:04.407Z,98028.92
2018-12-04T02:03:32.488Z,98033.50
2018-12-04T02:06:00.558Z,98030.27
2018-12-04T02:08:28.647Z,98036.81
2018-12-04T02:10:56.700Z,98041.25
2018-12-04T02:13:24.899Z,98038.80
2018-12-04T02:15:53.010Z,98040.77
2018-12-04T02:18:21.034Z,98042.06
2018-12-04T02:20:49.315Z,98046.44
2018-12-04T02:23:17.381Z,98049.33
2018-12-04T02:25:45.560Z,98052.23
2018-12-04T02:28:13.798Z,98054.73
2018-12-04T02:30:41.863Z,98046.42
2018-12-04T02:33:09.956Z,98059.39
2018-12-04T02:35:38.115Z,98062.64
2018-12-04T02:38:06.228Z,98063.05
2018-12-04T02:40:34.396Z,98070.27
2018-12-04T02:43:02.746Z,98082.77
2018-12-04T02:45:31.327Z,98098.25
2018-12-04T02:47:59.399Z,98103.92
2018-12-04T02:50:27.479Z,98110.35
2018-12-04T02:52:55.956Z,98114.77
2018-12-04T02:55:24.123Z,98120.95
2018-12-04T02:57:52.274Z,98125.37
2018-12-04T03:00:20.707Z,98122.69
2018-12-04T03:02:48.781Z,98131.83
2018-12-04T03:05:16.939Z,98130.56
2018-12-04T03:07:44.991Z,98136.34
2018-12-04T03:10:13.169Z,98137.21
2018-12-04T03:12:41.343Z,98147.61
2018-12-04T03:15:09.428Z,98157.42
2018-12-04T03:17:37.616Z,98160.95
2018-12-04T03:20:06.109Z,98163.11
2018-12-04T03:22:34.219Z,98165.33
2018-12-04T03:25:02.652Z,98170.83
2018-12-04T03:27:30.803Z,98170.80
2018-12-04T03:29:59.607Z,98164.48
2018-12-04T03:32:27.651Z,98165.70
2018-12-04T03:34:55.903Z,98175.08
2018-12-04T03:37:24.307Z,98166.88
2018-12-04T03:39:52.491Z,98173.34
2018-12-04T03:42:20.551Z,98170.41
2018-12-04T03:44:48.636Z,98179.70
2018-12-04T03:47:16.799Z,98184.66
2018-12-04T03:49:44.883Z,98194.19
2018-12-04T03:52:12.939Z,98189.36
2018-12-04T03:54:40.991Z,98194.53
2018-12-04T03:57:09.091Z,98198.47
2018-12-04T03:59:37.848Z,98212.06
2018-12-04T04:02:06.127Z,98209.83
2018-12-04T04:04:34.233Z,98221.16
2018-12-04T04:07:02.303Z,98227.02
2018-12-04T04:09:30.399Z,98232.87
2018-12-04T04:11:58.432Z,98233.16
2018-12-04T04:14:26.541Z,98236.41
2018-12-04T04:16:55.000Z,98239.95
2018-12-04T04:19:23.196Z,98241.91
2018-12-04T04:21:51.245Z,98249.66
2018-12-04T04:24:19.412Z,98263.03
2018-12-04T04:26:47.558Z,98278.27
2018-12-04T04:29:15.631Z,98277.58
2018-12-04T04:31:43.711Z,98284.97
2018-12-04T04:34:11.738Z,98296.62
2018-12-04T04:36:39.791Z,98298.38
2018-12-04T04:39:07.867Z,98307.20
2018-12-04T04:41:35.903Z,98309.20
2018-12-04T04:44:04.001Z,98313.03
2018-12-04T04:46:32.151Z,98310.49
2018-12-04T04:49:00.225Z,98318.77
2018-12-04T04:51:28.396Z,98319.49
2018-12-04T04:53:56.473Z,98328.08
2018-12-04T04:56:24.644Z,98336.14
2018-12-04T04:58:52.852Z,98336.42
2018-12-04T05:01:20.911Z,98337.69
2018-12-04T05:03:48.996Z,98337.88
2018-12-04T05:06:17.052Z,98345.50
2018-12-04T05:08:45.135Z,98347.05
2018-12-04T05:11:13.199Z,98355.13
2018-12-04T05:13:41.371Z,98350.89
2018-12-04T05:16:09.434Z,98357.03
2018-12-04T05:18:37.612Z,98357.50
2018-12-04T05:21:06.111Z,98362.35
2018-12-04T05:23:34.159Z,98361.95
2018-12-04T05:26:02.240Z,98362.81
2018-12-04T05:28:30.320Z,98361.16
2018-12-04T05:30:58.391Z,98374.94
2018-12-04T05:33:26.460Z,98374.94
2018-12-04T05:35:54.579Z,98379.47
2018-12-04T05:38:22.735Z,98389.28
2018-12-04T05:40:50.804Z,98390.11
2018-12-04T05:43:18.909Z,98391.30
2018-12-04T05:45:46.980Z,98402.20
2018-12-04T05:48:15.515Z,98409.05
2018-12-04T05:50:43.555Z,98414.56
2018-12-04T05:53:17.275Z,98427.59
2018-12-04T05:55:45.363Z,98426.16
2018-12-04T05:58:13.495Z,98430.27
2018-12-04T06:00:41.563Z,98433.36
2018-12-04T06:03:09.747Z,98426.25
2018-12-04T06:05:37.844Z,98426.98
2018-12-04T06:08:05.983Z,98437.22
2018-12-04T06:10:34.087Z,98445.08
2018-12-04T06:13:02.166Z,98450.27
2018-12-04T06:15:30.231Z,98460.68
2018-12-04T06:17:58.491Z,98465.66
2018-12-04T06:20:26.833Z,98471.95
2018-12-04T06:22:54.851Z,98485.78
2018-12-04T06:25:22.924Z,98481.69
2018-12-04T06:27:51.161Z,98490.30
2018-12-04T06:30:20.091Z,98495.23
2018-12-04T06:32:48.205Z,98498.31
2018-12-04T06:35:16.248Z,98503.41
2018-12-04T06:37:44.456Z,98507.17
2018-12-04T06:40:12.538Z,98519.48
2018-12-04T06:42:40.593Z,98524.58
2018-12-04T06:45:08.719Z,98532.58
2018-12-04T06:47:36.775Z,98541.31
2018-12-04T06:50:09.139Z,98545.09
2018-12-04T06:52:37.494Z,98543.34
2018-12-04T06:55:08.259Z,98539.46
2018-12-04T06:57:36.359Z,98536.95
2018-12-04T07:00:06.153Z,98539.64
2018-12-04T07:02:34.331Z,98545.54
2018-12-04T07:05:02.904Z,98554.67
2018-12-04T07:07:31.044Z,98564.05
2018-12-04T07:09:59.095Z,98558.50
2018-12-04T07:12:27.438Z,98566.77
2018-12-04T07:14:55.563Z,98572.51
2018-12-04T07:17:23.590Z,98591.16
2018-12-04T07:19:51.886Z,98594.79
2018-12-04T07:22:20.707Z,98602.27
2018-12-04T07:24:48.811Z,98603.91
2018-12-04T07:27:16.882Z,98617.25
2018-12-04T07:29:44.979Z,98622.23
2018-12-04T07:32:13.038Z,98629.17
2018-12-04T07:34:41.139Z,98636.27
2018-12-04T07:37:09.291Z,98639.18
2018-12-04T07:39:37.373Z,98641.39
2018-12-04T07:42:05.439Z,98645.34
2018-12-04T07:44:33.612Z,98651.22
2018-12-04T07:47:01.670Z,98648.05
2018-12-04T07:49:29.739Z,98654.20
2018-12-04T07:51:57.794Z,98657.48
2018-12-04T07:54:26.071Z,98665.15
2018-12-04T07:56:54.339Z,98669.77
2018-12-04T07:59:22.447Z,98686.42
2018-12-04T08:01:50.561Z,98697.23
2018-12-04T08:04:18.739Z,98698.80
2018-12-04T08:06:47.067Z,98705.33
2018-12-04T08:09:15.115Z,98706.41
2018-12-04T08:11:43.190Z,98711.77
2018-12-04T08:14:11.357Z,98719.44
2018-12-04T08:16:39.441Z,98726.59
2018-12-04T08:19:08.264Z,98728.82
2018-12-04T08:21:36.320Z,98733.45
2018-12-04T08:24:04.431Z,98733.27
2018-12-04T08:26:32.790Z,98733.77
2018-12-04T08:29:01.002Z,98728.89
2018-12-04T08:31:29.059Z,98720.33
2018-12-04T08:33:57.392Z,98728.78
2018-12-04T08:36:25.504Z,98731.80
2018-12-04T08:38:53.583Z,98736.36
2018-12-04T08:41:21.760Z,98736.73
2018-12-04T08:43:49.823Z,98741.38
2018-12-04T08:46:17.943Z,98742.61
2018-12-04T08:48:46.011Z,98743.63
2018-12-04T08:51:14.132Z,98744.96
2018-12-04T08:53:42.247Z,98754.39
2018-12-04T08:56:10.296Z,98769.20
2018-12-04T08:58:38.479Z,98781.95
2018-12-04T09:01:06.684Z,98783.02
2018-12-04T09:03:35.033Z,98774.49
2018-12-04T09:06:05.084Z,98779.66
2018-12-04T09:08:33.257Z,98776.61
2018-12-04T09:11:01.371Z,98770.39
2018-12-04T09:13:29.540Z,98777.79
2018-12-04T09:15:57.663Z,98780.62
2018-12-04T09:18:25.781Z,98787.71
2018-12-04T09:20:54.008Z,98798.09
2018-12-04T09:23:22.675Z,98797.20
2018-12-04T09:25:50.809Z,98805.71
2018-12-04T09:28:18.975Z,98804.83
2018-12-04T09:30:47.141Z,98805.37
2018-12-04T09:33:15.216Z,98806.12
2018-12-04T09:35:43.371Z,98816.67
2018-12-04T09:38:11.549Z,98821.27
2018-12-04T09:40:39.721Z,98833.76
2018-12-04T09:43:07.793Z,98844.95
2018-12-04T09:45:35.863Z,98849.23
2018-12-04T09:48:04.140Z,98865.11
2018-12-04T09:50:32.211Z,98859.96
2018-12-04T09:53:00.365Z,98858.34
2018-12-04T09:55:28.516Z,98869.45
2018-12-04T09:57:56.628Z,98876.95
2018-12-04T10:00:24.803Z,98879.24
2018-12-04T10:02:52.968Z,98879.47
2018-12-04T10:05:21.047Z,98883.67
2018-12-04T10:07:49.191Z,98880.36
2018-12-04T10:10:17.299Z,98886.10
2018-12-04T10:12:45.398Z,98887.48
2018-12-04T10:15:13.824Z,98891.30
2018-12-04T10:17:42.028Z,98895.50
2018-12-04T10:20:10.171Z,98887.78
2018-12-04T10:22:38.368Z,98885.77
2018-12-04T10:25:06.816Z,98875.38
2018-12-04T10:27:34.979Z,98883.30
2018-12-04T10:30:03.924Z,98896.66
2018-12-04T10:32:32.067Z,98897.17
2018-12-04T10:35:00.716Z,98900.09
2018-12-04T10:37:28.787Z,98901.88
2018-12-04T10:39:57.127Z,98901.60
2018-12-04T10:42:25.296Z,98913.35
2018-12-04T10:44:53.885Z,98921.48
2018-12-04T10:47:21.971Z,98917.46
2018-12-04T10:49:50.036Z,98923.53
2018-12-04T10:52:18.137Z,98925.05
2018-12-04T10:54:46.208Z,98927.28
2018-12-04T10:57:14.387Z,98926.38
2018-12-04T10:59:42.557Z,98919.72
2018-12-04T11:02:12.527Z,98922.70
2018-12-04T11:04:40.648Z,98923.95
2018-12-04T11:07:08.714Z,98931.56
2018-12-04T11:09:36.856Z,98940.32
2018-12-04T11:12:05.111Z,98933.68
2018-12-04T11:14:33.443Z,98943.96
2018-12-04T11:17:01.575Z,98944.44
2018-12-04T11:19:29.642Z,98947.44
2018-12-04T11:21:57.883Z,98948.78
2018-12-04T11:24:25.947Z,98949.36
2018-12-04T11:26:54.061Z,98951.15
2018-12-04T11:29:22.102Z,98952.52
2018-12-04T11:31:50.272Z,98953.48
2018-12-04T11:34:18.491Z,98950.13
2018-12-04T11:36:46.540Z,98954.86
2018-12-04T11:39:14.775Z,98960.60
2018-12-04T11:41:42.876Z,98961.53
2018-12-04T11:44:11.425Z,98966.73
2018-12-04T11:46:39.548Z,98974.63
2018-12-04T11:49:07.640Z,98975.78
2018-12-04T11:51:35.724Z,98977.27
2018-12-04T11:54:04.019Z,98977.89
2018-12-04T11:56:32.188Z,98983.58
2018-12-04T11:59:00.319Z,98984.38
2018-12-04T12:01:29.771Z,98986.77
2018-12-04T12:03:57.922Z,98983.38
2018-12-04T12:06:26.086Z,98990.36
2018-12-04T12:08:54.155Z,98995.23
2018-12-04T12:11:22.219Z,99012.73
2018-12-04T12:13:50.295Z,99018.05
2018-12-04T12:16:18.359Z,99022.92
2018-12-04T12:18:46.465Z,99030.34
2018-12-04T12:21:14.624Z,99036.34
2018-12-04T12:23:42.730Z,99041.50
2018-12-04T12:26:10.816Z,99044.31
2018-12-04T12:28:38.866Z,99052.70
2018-12-04T12:31:06.957Z,99059.59
2018-12-04T12:33:35.047Z,99055.06
2018-12-04T12:36:03.135Z,99064.70
2018-12-04T12:38:31.195Z,99074.89
2018-12-04T12:40:59.296Z,99067.61
2018-12-04T12:43:27.367Z,99073.73
2018-12-04T12:45:55.579Z,99070.13
2018-12-04T12:48:23.759Z,99073.83
2018-12-04T12:50:51.859Z,99077.30
2018-12-04T12:53:19.928Z,99085.04
2018-12-04T12:55:48.041Z,99081.79
2018-12-04T12:58:16.115Z,99082.80
2018-12-04T13:00:44.243Z,99084.77
2018-12-04T13:03:13.287Z,99089.73
2018-12-04T13:05:41.535Z,99090.48
2018-12-04T13:08:09.634Z,99092.88
2018-12-04T13:10:37.695Z,99092.44
2018-12-04T13:13:06.751Z,99090.31
2018-12-04T13:15:34.910Z,99093.42
2018-12-04T13:18:03.118Z,99097.84
2018-12-04T13:20:31.169Z,99102.73
2018-12-04T13:22:59.236Z,99114.33
2018-12-04T13:25:27.311Z,99116.95
2018-12-04T13:27:55.473Z,99119.72
2018-12-04T13:30:23.577Z,99116.85
2018-12-04T13:32:51.857Z,99113.20
2018-12-04T13:35:19.903Z,99115.31
2018-12-04T13:37:48.095Z,99125.02
2018-12-04T13:40:16.158Z,99132.73
2018-12-04T13:42:44.543Z,99133.34
2018-12-04T13:45:12.719Z,99134.13
2018-12-04T13:47:40.786Z,99137.23
2018-12-04T13:50:09.636Z,99143.44
2018-12-04T13:52:37.966Z,99142.95
2018-12-04T13:55:06.657Z,99144.95
2018-12-04T13:57:34.723Z,99144.22
2018-12-04T14:00:04.254Z,99144.49
2018-12-04T14:02:32.487Z,99145.71
2018-12-04T14:05:00.567Z,99151.94
2018-12-04T14:07:28.663Z,99154.45
2018-12-04T14:09:56.836Z,99157.72
2018-12-04T14:12:25.041Z,99163.41
2018-12-04T14:14:53.198Z,99165.94
2018-12-04T14:17:21.363Z,99167.53
2018-12-04T14:19:49.505Z,99166.80
2018-12-04T14:22:17.636Z,99168.83
2018-12-04T14:24:45.826Z,99177.99
2018-12-04T14:27:14.130Z,99189.81
2018-12-04T14:29:42.260Z,99190.74
2018-12-04T14:32:11.209Z,99193.36
2018-12-04T14:34:39.381Z,99201.44
2018-12-04T14:37:07.561Z,99209.42
2018-12-04T14:39:35.791Z,99213.69
2018-12-04T14:42:04.123Z,99213.53
2018-12-04T14:44:32.291Z,99212.69
2018-12-04T14:47:00.608Z,99210.45
2018-12-04T14:49:28.887Z,99212.28
2018-12-04T14:51:57.042Z,99217.39
2018-12-04T14:54:25.176Z,99229.63
2018-12-04T14:56:53.379Z,99237.16
2018-12-04T14:59:21.560Z,99231.48
2018-12-04T15:01:49.821Z,99247.19
2018-12-04T15:04:17.924Z,99254.66
2018-12-04T15:06:46.117Z,99250.08
2018-12-04T15:09:14.284Z,99253.00
2018-12-04T15:11:42.367Z,99253.16
2018-12-04T15:14:10.638Z,99261.75
2018-12-04T15:16:38.864Z,99266.55
2018-12-04T15:19:06.975Z,99263.18
2018-12-04T15:21:35.059Z,99265.16
2018-12-04T15:24:03.139Z,99267.48
2018-12-04T15:26:31.234Z,99268.61
2018-12-04T15:28:59.399Z,99274.02
2018-12-04T15:31:27.476Z,99272.41
2018-12-04T15:33:55.742Z,99273.94
2018-12-04T15:36:23.874Z,99275.65
2018-12-04T15:38:52.024Z,99275.38
2018-12-04T15:41:20.167Z,99273.02
2018-12-04T15:43:48.384Z,99275.71
2018-12-04T15:46:16.533Z,99273.17
2018-12-04T15:48:44.725Z,99282.30
2018-12-04T15:51:12.927Z,99289.24
2018-12-04T15:53:41.107Z,99297.59
2018-12-04T15:56:09.213Z,99298.27
2018-12-04T15:58:37.552Z,99304.41
2018-12-04T16:01:05.979Z,99311.52
2018-12-04T16:03:34.060Z,99305.23
2018-12-04T16:06:02.217Z,99304.56
2018-12-04T16:08:30.286Z,99315.54
2018-12-04T16:10:58.475Z,99315.89
2018-12-04T16:13:26.584Z,99319.27
2018-12-04T16:15:54.655Z,99329.05
2018-12-04T16:18:22.688Z,99328.84
2018-12-04T16:20:50.788Z,99326.08
2018-12-04T16:23:18.964Z,99330.84
2018-12-04T16:25:46.991Z,99336.66
2018-12-04T16:28:15.163Z,99339.20
2018-12-04T16:30:43.223Z,99343.66
2018-12-04T16:33:11.305Z,99350.67
2018-12-04T16:35:39.367Z,99352.41
2018-12-04T16:38:07.961Z,99351.42
2018-12-04T16:40:36.037Z,99349.16
2018-12-04T16:43:04.133Z,99356.36
2018-12-04T16:45:32.205Z,99353.17
2018-12-04T16:48:00.355Z,99362.70
2018-12-04T16:50:28.570Z,99367.20
2018-12-04T16:52:56.671Z,99367.31
2018-12-04T16:55:24.755Z,99364.50
2018-12-04T16:57:53.038Z,99364.80
2018-12-04T17:00:21.311Z,99363.03
2018-12-04T17:02:49.374Z,99365.09
2018-12-04T17:05:17.515Z,99365.98
2018-12-04T17:07:46.086Z,99359.06
2018-12-04T17:10:14.158Z,99367.31
2018-12-04T17:12:42.273Z,99375.88
2018-12-04T17:15:10.814Z,99375.27
2018-12-04T17:17:38.843Z,99378.61
2018-12-04T17:20:07.852Z,99382.88
2018-12-04T17:22:36.010Z,99386.42
2018-12-04T17:25:04.699Z,99391.73
2018-12-04T17:27:32.791Z,99389.14
2018-12-04T17:30:01.239Z,99388.93
2018-12-04T17:32:30.652Z,99381.56
2018-12-04T17:34:58.835Z,99376.13
2018-12-04T17:37:26.991Z,99382.75
2018-12-04T17:39:55.141Z,99374.90
2018-12-04T17:42:23.348Z,99380.87
2018-12-04T17:44:51.385Z,99376.53
2018-12-04T17:47:19.548Z,99382.41
2018-12-04T17:49:47.659Z,99388.05
2018-12-04T17:52:15.702Z,99394.00
2018-12-04T17:54:43.887Z,99394.02
2018-12-04T17:57:11.979Z,99395.27
2018-12-04T17:59:40.062Z,99400.47
2018-12-04T18:02:08.235Z,99411.41
2018-12-04T18:04:36.419Z,99417.55
2018-12-04T18:07:04.575Z,99424.88
2018-12-04T18:09:32.751Z,99433.50
2018-12-04T18:12:01.559Z,99438.59
2018-12-04T18:14:29.712Z,99444.33
2018-12-04T18:16:57.779Z,99444.02
2018-12-04T18:19:25.959Z,99442.34
2018-12-04T18:21:54.031Z,99442.70
2018-12-04T18:24:22.150Z,99440.40
2018-12-04T18:26:50.270Z,99439.14
2018-12-04T18:29:18.370Z,99451.48
2018-12-04T18:31:46.431Z,99450.61
2018-12-04T18:34:14.517Z,99453.55
2018-12-04T18:36:43.072Z,99462.09
2018-12-04T18:39:11.136Z,99462.44
2018-12-04T18:41:39.191Z,99471.14
2018-12-04T18:44:07.235Z,99470.55
2018-12-04T18:46:35.336Z,99457.30
2018-12-04T18:49:03.716Z,99464.89
2018-12-04T18:51:31.860Z,99473.40
2018-12-04T18:53:59.879Z,99467.47
2018-12-04T18:56:27.964Z,99484.56
2018-12-04T18:58:56.107Z,99476.55
2018-12-04T19:01:24.195Z,99472.58
2018-12-04T19:03:52.267Z,99472.11
2018-12-04T19:06:20.315Z,99470.26
2018-12-04T19:08:49.389Z,99474.93
2018-12-04T19:11:17.983Z,99485.70
2018-12-04T19:13:46.030Z,99480.83
2018-12-04T19:16:14.091Z,99489.80
2018-12-04T19:18:42.191Z,99486.89
2018-12-04T19:21:10.301Z,99486.16
2018-12-04T19:23:39.291Z,99481.44
2018-12-04T19:26:07.572Z,99475.53
2018-12-04T19:28:35.843Z,99481.84
2018-12-04T19:31:04.166Z,99479.66
2018-12-04T19:33:32.338Z,99481.85
2018-12-04T19:36:00.472Z,99485.82
2018-12-04T19:38:28.623Z,99495.78
2018-12-04T19:40:56.811Z,99497.17
2018-12-04T19:43:24.896Z,99492.18
2018-12-04T19:45:52.967Z,99490.84
2018-12-04T19:48:21.203Z,99490.15
2018-12-04T19:50:49.518Z,99490.34
2018-12-04T19:53:17.626Z,99488.58
2018-12-04T19:55:45.756Z,99490.27
2018-12-04T19:58:13.932Z,99495.31
2018-12-04T20:00:42.003Z,99497.08
2018-12-04T20:03:10.039Z,99496.58
2018-12-04T20:05:38.148Z,99499.80
2018-12-04T20:08:06.387Z,99498.25
2018-12-04T20:10:34.439Z,99504.44
2018-12-04T20:13:02.683Z,99495.14
2018-12-04T20:15:30.731Z,99499.61
2018-12-04T20:17:58.804Z,99496.47
2018-12-04T20:20:26.894Z,99508.70
2018-12-04T20:22:54.965Z,99511.18
2018-12-04T20:25:23.195Z,99514.98
2018-12-04T20:27:51.386Z,99521.65
2018-12-04T20:30:20.467Z,99526.01
2018-12-04T20:32:48.540Z,99529.83
2018-12-04T20:35:16.599Z,99519.70
2018-12-04T20:37:44.679Z,99516.58
2018-12-04T20:40:12.764Z,99515.69
2018-12-04T20:42:40.831Z,99516.07
2018-12-04T20:45:08.995Z,99520.55
2018-12-04T20:47:37.083Z,99521.41
2018-12-04T20:50:06.067Z,99521.63
2018-12-04T20:52:34.135Z,99524.31
2018-12-04T20:55:08.475Z,99535.30
2018-12-04T20:57:32.236Z,99546.14
2018-12-04T21:00:01.293Z,99548.06
2018-12-04T21:02:30.836Z,99553.09
2018-12-04T21:04:59.176Z,99548.64
2018-12-04T21:07:27.202Z,99549.02
2018-12-04T21:09:55.375Z,99549.29
2018-12-04T21:12:23.651Z,99548.16
2018-12-04T21:14:52.285Z,99547.78
2018-12-04T21:17:20.531Z,99558.69
2018-12-04T21:19:48.665Z,99560.66
2018-12-04T21:22:18.018Z,99561.22
2018-12-04T21:24:46.312Z,99569.65
2018-12-04T21:27:16.243Z,99566.31
2018-12-04T21:29:46.171Z,99562.22
2018-12-04T21:32:16.115Z,99557.30
2018-12-04T21:34:48.464Z,99549.70
2018-12-04T21:37:18.026Z,99551.21
2018-12-04T21:39:47.967Z,99552.56
2018-12-04T21:42:17.923Z,99546.08
2018-12-04T21:44:47.877Z,99548.16
2018-12-04T21:47:17.839Z,99549.98
2018-12-04T21:49:45.923Z,99555.25
2018-12-04T21:52:13.991Z,99562.10
2018-12-04T21:54:42.083Z,99564.89
2018-12-04T21:57:10.129Z,99568.81
2018-12-04T21:59:38.207Z,99556.48
2018-12-04T22:02:06.300Z,99563.66
2018-12-04T22:04:34.414Z,99571.05
2018-12-04T22:07:02.523Z,99578.47
2018-12-04T22:09:30.640Z,99581.73
2018-12-04T22:11:58.770Z,99581.03
2018-12-04T22:14:26.832Z,99576.27
2018-12-04T22:16:55.531Z,99576.31
2018-12-04T22:19:23.595Z,99568.33
2018-12-04T22:21:52.487Z,99568.59
2018-12-04T22:24:20.576Z,99572.75
2018-12-04T22:26:48.775Z,99575.52
2018-12-04T22:29:16.799Z,99569.88
2018-12-04T22:31:45.287Z,99574.26
2018-12-04T22:34:13.355Z,99567.53
2018-12-04T22:36:42.015Z,99566.92
2018-12-04T22:39:10.215Z,99560.17
2018-12-04T22:41:38.492Z,99570.52
2018-12-04T22:44:06.568Z,99572.31
2018-12-04T22:46:34.626Z,99568.07
2018-12-04T22:49:03.531Z,99569.19
2018-12-04T22:51:31.679Z,99571.70
2018-12-04T22:53:59.763Z,99567.68
2018-12-04T22:56:27.823Z,99570.41
2018-12-04T22:58:55.995Z,99560.11
2018-12-04T23:01:29.815Z,99552.85
2018-12-04T23:03:57.895Z,99551.56
2018-12-04T23:06:25.931Z,99552.05
2018-12-04T23:08:54.186Z,99553.20
2018-12-04T23:11:22.310Z,99549.92
2018-12-04T23:13:51.539Z,99544.02
2018-12-04T23:16:19.595Z,99552.79
2018-12-04T23:18:47.818Z,99554.66
2018-12-04T23:21:15.907Z,99557.89
2018-12-04T23:23:43.980Z,99559.36
2018-12-04T23:26:12.143Z,99565.25
2018-12-04T23:28:40.331Z,99558.31
2018-12-04T23:31:08.475Z,99557.03
2018-12-04T23:33:36.675Z,99551.30
2018-12-04T23:36:04.851Z,99555.11
2018-12-04T23:38:32.947Z,99552.91
2018-12-04T23:41:01.028Z,99549.22
2018-12-04T23:43:29.075Z,99551.47
2018-12-04T23:45:57.158Z,99552.39
2018-12-04T23:48:25.231Z,99548.73
2018-12-04T23:50:53.299Z,99533.25
2018-12-04T23:53:21.379Z,99530.28
2018-12-04T23:55:49.537Z,99528.33
2018-12-04T23:58:17.631Z,99528.34
